Terminal Aerodrome Forecast
Issued by NWS Kansas City/Pleasant Hill, MO

Home | Current Version | Previous Version | Text Only | Print | Product List | Glossary On
Versions: 1 2 3 4 5 6 7 8 9 10 11 12 13 14 15
000
FTUS43 KEAX 050500
TAFMCI
TAF
KMCI 050520Z 0506/0606 VRB05KT P6SM VCTS BKN060CB
     FM050900 14008KT P6SM BKN100
     FM051400 18012KT P6SM SCT040=

USA.gov is the U.S. government's official web portal to all federal, state and local government web resources and services.